Alanson, Michigan
Current Conditions -  °F | °C
As of 11:35 AM on Sunday 21 Dec 2014 (Local Time) from KMGN Reporting Station
Overcast Overcast  
Wind Chill: -5°   Ceiling: 3500
Heat Index: -2°   Visibility: 10mi
Dew Point: -4°   Wind: 5mph
Humidity: 84%   Direction: 70°ENE
Pressure: 30.19"   Gusts: NA
Location:  45.44°N, 84.79°W
Report Text: KMGN 211635Z AUTO 07004KT 10SM OVC035 M02/M04 A3019 RMK AO2 T10191043
Loading
Personal Weather Stations






























Interactive Weather Map New forecast layout! Learn more

10-Day Weather Forecast

Advertisements
Track Severe Weather on mobile